createdAt,value
2023-03-06T00:01:49.017Z,4.69
2023-03-06T00:04:51.469Z,4.73
2023-03-06T00:07:53.767Z,4.69
2023-03-06T00:10:56.716Z,4.79
2023-03-06T00:13:58.934Z,4.67
2023-03-06T00:17:01.190Z,4.70
2023-03-06T00:20:05.919Z,4.69
2023-03-06T00:23:09.007Z,4.62
2023-03-06T00:26:11.317Z,4.63
2023-03-06T00:29:15.734Z,4.67
2023-03-06T00:32:20.423Z,4.58
2023-03-06T00:35:22.774Z,4.49
2023-03-06T00:38:27.614Z,4.46
2023-03-06T00:41:31.733Z,4.42
2023-03-06T00:44:34.163Z,4.31
2023-03-06T00:47:37.917Z,4.26
2023-03-06T00:50:40.155Z,4.14
2023-03-06T00:53:42.402Z,4.04
2023-03-06T00:56:44.597Z,3.56
2023-03-06T00:59:46.940Z,3.52
2023-03-06T01:02:49.140Z,3.42
2023-03-06T01:05:51.374Z,3.36
2023-03-06T01:08:53.632Z,3.47
2023-03-06T01:11:56.461Z,3.46
2023-03-06T01:14:58.659Z,3.46
2023-03-06T01:18:01.053Z,3.49
2023-03-06T01:21:04.505Z,3.39
2023-03-06T01:24:07.018Z,3.29
2023-03-06T01:27:09.286Z,3.25
2023-03-06T01:30:12.647Z,3.30
2023-03-06T01:33:15.011Z,3.22
2023-03-06T01:36:17.682Z,3.15
2023-03-06T01:39:20.770Z,2.82
2023-03-06T01:42:23.059Z,2.77
2023-03-06T01:45:25.241Z,2.38
2023-03-06T01:48:27.599Z,2.33
2023-03-06T01:51:35.151Z,2.33
2023-03-06T01:54:57.755Z,2.26
2023-03-06T01:58:05.892Z,2.09
2023-03-06T02:01:08.170Z,1.89
2023-03-06T02:04:11.060Z,1.86
2023-03-06T02:07:16.704Z,1.75
2023-03-06T02:10:20.167Z,1.69
2023-03-06T02:13:22.506Z,1.68
2023-03-06T02:16:30.700Z,1.68
2023-03-06T02:19:50.137Z,1.73
2023-03-06T02:23:18.355Z,1.71
2023-03-06T02:26:22.144Z,1.61
2023-03-06T02:29:27.380Z,1.56
2023-03-06T02:32:31.903Z,1.48
2023-03-06T02:35:36.189Z,1.37
2023-03-06T02:38:46.676Z,1.14
2023-03-06T02:41:49.135Z,1.11
2023-03-06T02:44:54.276Z,0.99
2023-03-06T02:47:56.511Z,0.91
2023-03-06T02:50:58.834Z,1.04
2023-03-06T02:54:01.780Z,1.26
2023-03-06T02:57:04.254Z,1.52
2023-03-06T03:00:11.576Z,1.62
2023-03-06T03:03:14.042Z,1.61
2023-03-06T03:06:16.347Z,1.71
2023-03-06T03:09:19.540Z,1.83
2023-03-06T03:12:22.516Z,1.92
2023-03-06T03:15:25.793Z,2.07
2023-03-06T03:18:28.753Z,2.10
2023-03-06T03:21:31.191Z,2.17
2023-03-06T03:24:33.485Z,2.24
2023-03-06T03:27:36.215Z,2.31
2023-03-06T03:30:40.666Z,2.24
2023-03-06T03:33:44.049Z,2.24
2023-03-06T03:36:47.612Z,2.20
2023-03-06T03:39:51.499Z,2.29
2023-03-06T03:42:53.828Z,2.40
2023-03-06T03:45:56.186Z,2.48
2023-03-06T03:48:58.936Z,2.40
2023-03-06T03:52:01.840Z,2.30
2023-03-06T03:55:11.527Z,2.16
2023-03-06T03:58:15.756Z,2.19
2023-03-06T04:01:18.246Z,2.12
2023-03-06T04:04:20.552Z,2.09
2023-03-06T04:07:22.809Z,2.17
2023-03-06T04:10:25.446Z,2.31
2023-03-06T04:13:27.976Z,2.48
2023-03-06T04:16:30.524Z,2.41
2023-03-06T04:19:32.985Z,2.37
2023-03-06T04:22:36.427Z,2.40
2023-03-06T04:25:39.010Z,2.53
2023-03-06T04:28:44.097Z,2.57
2023-03-06T04:31:46.396Z,2.57
2023-03-06T04:34:48.945Z,2.60
2023-03-06T04:37:51.153Z,2.64
2023-03-06T04:40:55.935Z,2.61
2023-03-06T04:43:58.325Z,2.64
2023-03-06T04:47:00.584Z,2.64
2023-03-06T04:50:04.025Z,2.66
2023-03-06T04:53:06.326Z,2.61
2023-03-06T04:56:08.847Z,2.62
2023-03-06T04:59:11.108Z,2.71
2023-03-06T05:02:13.344Z,2.74
2023-03-06T05:05:16.862Z,2.80
2023-03-06T05:08:19.119Z,2.84
2023-03-06T05:11:21.492Z,2.84
2023-03-06T05:14:23.688Z,2.80
2023-03-06T05:17:25.907Z,2.81
2023-03-06T05:20:31.177Z,2.81
2023-03-06T05:23:36.314Z,2.84
2023-03-06T05:26:38.542Z,2.88
2023-03-06T05:29:40.833Z,3.09
2023-03-06T05:32:43.296Z,3.13
2023-03-06T05:35:48.656Z,3.02
2023-03-06T05:38:50.926Z,3.01
2023-03-06T05:41:53.123Z,3.01
2023-03-06T05:44:55.304Z,3.05
2023-03-06T05:47:57.529Z,3.04
2023-03-06T05:51:01.234Z,3.02
2023-03-06T05:54:03.438Z,3.05
2023-03-06T05:57:06.173Z,3.08
2023-03-06T06:00:09.666Z,3.13
2023-03-06T06:03:20.687Z,3.18
2023-03-06T06:06:22.970Z,3.19
2023-03-06T06:09:25.938Z,3.20
2023-03-06T06:12:28.441Z,3.20
2023-03-06T06:15:30.939Z,3.25
2023-03-06T06:18:33.368Z,3.37
2023-03-06T06:21:35.669Z,3.30
2023-03-06T06:24:38.333Z,3.33
2023-03-06T06:27:40.693Z,3.37
2023-03-06T06:30:44.159Z,3.42
2023-03-06T06:33:46.530Z,3.44
2023-03-06T06:36:50.981Z,3.47
2023-03-06T06:39:54.485Z,3.43
2023-03-06T06:42:56.901Z,3.46
2023-03-06T06:46:19.586Z,3.47
2023-03-06T06:49:21.713Z,3.59
2023-03-06T06:52:25.209Z,3.54
2023-03-06T06:55:27.661Z,3.49
2023-03-06T06:58:29.981Z,3.46
2023-03-06T07:01:32.710Z,3.50
2023-03-06T07:04:35.034Z,3.57
2023-03-06T07:07:38.289Z,3.57
2023-03-06T07:10:40.562Z,3.63
2023-03-06T07:13:43.066Z,3.67
2023-03-06T07:16:45.281Z,3.71
2023-03-06T07:19:48.336Z,3.80
2023-03-06T07:22:53.199Z,4.14
2023-03-06T07:25:55.837Z,4.11
2023-03-06T07:28:58.076Z,4.08
2023-03-06T07:32:00.664Z,4.05
2023-03-06T07:35:19.716Z,3.98
2023-03-06T07:38:22.840Z,4.12
2023-03-06T07:41:25.098Z,4.08
2023-03-06T07:44:27.819Z,4.19
2023-03-06T07:47:32.612Z,4.31
2023-03-06T07:50:35.162Z,4.35
2023-03-06T07:53:37.509Z,4.41
2023-03-06T07:56:42.366Z,4.48
2023-03-06T07:59:44.860Z,4.53
2023-03-06T08:02:49.549Z,4.62
2023-03-06T08:05:55.056Z,4.96
2023-03-06T08:08:58.042Z,4.99
2023-03-06T08:12:00.958Z,5.20
2023-03-06T08:15:03.560Z,5.23
2023-03-06T08:18:08.290Z,5.38
2023-03-06T08:21:15.764Z,5.30
2023-03-06T08:24:22.493Z,5.20
2023-03-06T08:27:27.756Z,5.06
2023-03-06T08:30:30.373Z,5.14
2023-03-06T08:33:32.849Z,5.21
2023-03-06T08:36:35.677Z,5.38
2023-03-06T08:39:40.061Z,5.47
2023-03-06T08:42:44.847Z,5.75
2023-03-06T08:45:55.183Z,5.79
2023-03-06T08:48:58.149Z,5.78
2023-03-06T08:52:07.690Z,5.79
2023-03-06T08:55:10.314Z,5.93
2023-03-06T08:58:18.721Z,6.24
2023-03-06T09:01:40.146Z,6.37
2023-03-06T09:04:47.786Z,6.72
2023-03-06T09:07:52.360Z,7.22
2023-03-06T09:10:54.709Z,7.12
2023-03-06T09:13:57.753Z,7.81
2023-03-06T09:17:00.336Z,8.45
2023-03-06T09:20:03.272Z,8.87
2023-03-06T09:23:05.810Z,9.75
2023-03-06T09:26:08.711Z,10.05
2023-03-06T09:29:12.612Z,9.72
2023-03-06T09:32:15.157Z,9.62
2023-03-06T09:35:25.085Z,10.44
2023-03-06T09:38:28.329Z,10.39
2023-03-06T09:41:38.046Z,10.65
2023-03-06T09:44:44.186Z,11.23
2023-03-06T09:47:58.005Z,12.04
2023-03-06T09:51:16.422Z,12.56
2023-03-06T09:54:54.443Z,11.65
2023-03-06T09:58:26.210Z,10.87
2023-03-06T10:01:41.175Z,10.85
2023-03-06T10:04:53.442Z,11.40
2023-03-06T10:08:09.235Z,11.77
2023-03-06T10:11:14.902Z,11.91
2023-03-06T10:14:37.309Z,11.43
2023-03-06T10:17:42.058Z,11.36
2023-03-06T10:21:04.695Z,10.68
2023-03-06T10:24:37.225Z,11.25
2023-03-06T10:27:45.487Z,11.38
2023-03-06T10:30:59.769Z,11.74
2023-03-06T10:34:24.581Z,11.00
2023-03-06T10:37:31.612Z,11.31
2023-03-06T10:40:50.946Z,11.09
2023-03-06T10:44:05.411Z,11.23
2023-03-06T10:47:28.738Z,11.56
2023-03-06T10:50:32.305Z,11.91
2023-03-06T10:53:35.887Z,11.90
2023-03-06T10:56:48.598Z,11.95
2023-03-06T10:59:55.317Z,13.53
2023-03-06T11:03:18.595Z,15.27
2023-03-06T11:06:35.723Z,15.97
2023-03-06T11:09:38.433Z,16.33
2023-03-06T11:12:55.556Z,15.34
2023-03-06T11:16:01.813Z,14.08
2023-03-06T11:19:17.623Z,14.67
2023-03-06T11:22:22.785Z,15.88
2023-03-06T11:25:30.664Z,16.51
2023-03-06T11:28:38.465Z,17.29
2023-03-06T11:32:05.516Z,18.86
2023-03-06T11:35:15.893Z,15.39
2023-03-06T11:38:30.925Z,14.19
2023-03-06T11:41:59.378Z,13.02
2023-03-06T11:45:19.062Z,12.95
2023-03-06T11:48:35.747Z,12.95
2023-03-06T11:51:47.569Z,13.19
2023-03-06T11:54:56.887Z,13.02
2023-03-06T11:58:56.764Z,13.00
2023-03-06T12:02:29.180Z,13.04
2023-03-06T12:06:02.047Z,12.93
2023-03-06T12:09:13.124Z,12.78
2023-03-06T12:12:38.139Z,12.21
2023-03-06T12:16:03.222Z,11.72
2023-03-06T12:19:58.920Z,11.23
2023-03-06T12:23:29.707Z,11.05
2023-03-06T12:26:53.114Z,10.91
2023-03-06T12:30:24.410Z,10.82
2023-03-06T12:33:40.918Z,10.65
2023-03-06T12:37:04.897Z,10.43
2023-03-06T12:40:44.279Z,10.43
2023-03-06T12:44:04.375Z,10.49
2023-03-06T12:47:13.873Z,10.41
2023-03-06T12:50:31.492Z,10.44
2023-03-06T12:53:46.677Z,10.41
2023-03-06T12:56:50.694Z,10.24
2023-03-06T12:59:54.796Z,10.40
2023-03-06T13:03:29.426Z,10.10
2023-03-06T13:07:08.584Z,10.20
2023-03-06T13:10:32.177Z,10.13
2023-03-06T13:13:44.323Z,9.98
2023-03-06T13:16:46.607Z,10.06
2023-03-06T13:20:09.292Z,10.29
2023-03-06T13:23:51.366Z,10.13
2023-03-06T13:26:58.627Z,9.85
2023-03-06T13:30:07.735Z,9.90
2023-03-06T13:33:30.064Z,10.05
2023-03-06T13:36:34.349Z,10.03
2023-03-06T13:39:55.162Z,9.83
2023-03-06T13:43:12.356Z,9.78
2023-03-06T13:46:26.560Z,9.62
2023-03-06T13:49:29.836Z,9.47
2023-03-06T13:52:32.058Z,9.27
2023-03-06T13:55:42.828Z,9.18
2023-03-06T13:59:15.956Z,8.87
2023-03-06T14:02:36.716Z,8.56
2023-03-06T14:05:50.112Z,8.46
2023-03-06T14:08:52.854Z,8.49
2023-03-06T14:12:02.342Z,8.66
2023-03-06T14:15:16.726Z,8.97
2023-03-06T14:18:21.306Z,9.06
2023-03-06T14:21:30.985Z,8.99
2023-03-06T14:24:41.742Z,8.96
2023-03-06T14:27:49.647Z,9.17
2023-03-06T14:30:54.644Z,9.06
2023-03-06T14:33:59.589Z,8.89
2023-03-06T14:37:05.570Z,8.99
2023-03-06T14:40:11.474Z,8.93
2023-03-06T14:43:24.008Z,8.91
2023-03-06T14:46:26.269Z,8.97
2023-03-06T14:49:28.511Z,8.93
2023-03-06T14:52:31.035Z,8.79
2023-03-06T14:55:35.431Z,8.91
2023-03-06T14:58:58.138Z,8.93
2023-03-06T15:02:04.383Z,8.72
2023-03-06T15:05:19.494Z,8.50
2023-03-06T15:08:27.707Z,8.69
2023-03-06T15:11:53.164Z,8.57
2023-03-06T15:15:10.679Z,8.80
2023-03-06T15:18:28.813Z,8.84
2023-03-06T15:21:39.894Z,8.86
2023-03-06T15:24:42.209Z,8.93
2023-03-06T15:27:53.324Z,8.87
2023-03-06T15:31:10.662Z,8.67
2023-03-06T15:34:12.860Z,8.80
2023-03-06T15:37:29.004Z,8.89
2023-03-06T15:40:31.973Z,8.69
2023-03-06T15:43:39.676Z,8.66
2023-03-06T15:46:42.038Z,8.57
2023-03-06T15:49:44.458Z,8.62
2023-03-06T15:52:47.307Z,8.52
2023-03-06T15:55:51.719Z,8.45
2023-03-06T15:58:54.294Z,8.48
2023-03-06T16:01:56.603Z,8.45
2023-03-06T16:05:02.449Z,8.46
2023-03-06T16:08:05.419Z,8.46
2023-03-06T16:11:17.434Z,8.04
2023-03-06T16:14:23.866Z,7.94
2023-03-06T16:17:26.279Z,7.87
2023-03-06T16:20:29.329Z,7.87
2023-03-06T16:23:31.564Z,7.87
2023-03-06T16:26:35.171Z,7.97
2023-03-06T16:29:37.363Z,7.90
2023-03-06T16:32:39.685Z,7.97
2023-03-06T16:35:44.479Z,8.08
2023-03-06T16:38:48.130Z,8.16
2023-03-06T16:41:50.683Z,8.24
2023-03-06T16:44:52.941Z,8.29
2023-03-06T16:47:55.283Z,8.41
2023-03-06T16:50:57.520Z,8.41
2023-03-06T16:53:59.759Z,8.41
2023-03-06T16:57:01.997Z,8.41
2023-03-06T17:00:08.654Z,8.32
2023-03-06T17:03:10.890Z,8.08
2023-03-06T17:06:23.389Z,8.12
2023-03-06T17:09:25.623Z,8.02
2023-03-06T17:12:27.842Z,8.04
2023-03-06T17:15:30.171Z,7.97
2023-03-06T17:18:32.808Z,7.94
2023-03-06T17:21:35.550Z,7.90
2023-03-06T17:24:38.202Z,7.84
2023-03-06T17:27:40.380Z,7.83
2023-03-06T17:30:42.573Z,7.62
2023-03-06T17:33:45.261Z,7.60
2023-03-06T17:36:47.755Z,7.57
2023-03-06T17:39:50.545Z,7.63
2023-03-06T17:42:52.760Z,7.64
2023-03-06T17:45:55.042Z,7.67
2023-03-06T17:48:57.572Z,7.67
2023-03-06T17:52:00.993Z,7.60
2023-03-06T17:55:03.697Z,7.60
2023-03-06T17:58:05.973Z,7.56
2023-03-06T18:01:22.097Z,7.60
2023-03-06T18:04:24.755Z,7.67
2023-03-06T18:07:26.984Z,7.83
2023-03-06T18:10:29.251Z,7.74
2023-03-06T18:13:32.684Z,7.73
2023-03-06T18:16:34.992Z,7.81
2023-03-06T18:19:38.023Z,7.74
2023-03-06T18:22:40.405Z,7.78
2023-03-06T18:25:43.334Z,7.80
2023-03-06T18:28:47.911Z,7.90
2023-03-06T18:31:50.497Z,7.73
2023-03-06T18:34:52.833Z,7.59
2023-03-06T18:37:55.070Z,7.67
2023-03-06T18:40:57.334Z,7.57
2023-03-06T18:44:01.080Z,7.42
2023-03-06T18:47:04.127Z,7.46
2023-03-06T18:50:12.477Z,7.39
2023-03-06T18:53:14.675Z,7.35
2023-03-06T18:56:21.704Z,7.26
2023-03-06T18:59:23.976Z,7.26
2023-03-06T19:02:26.392Z,7.15
2023-03-06T19:05:28.623Z,7.13
2023-03-06T19:08:30.885Z,7.11
2023-03-06T19:11:34.169Z,7.08
2023-03-06T19:14:36.731Z,7.08
2023-03-06T19:17:38.988Z,7.06
2023-03-06T19:20:41.214Z,7.03
2023-03-06T19:23:43.420Z,7.06
2023-03-06T19:26:45.702Z,7.06
2023-03-06T19:29:47.879Z,7.15
2023-03-06T19:32:50.093Z,7.05
2023-03-06T19:35:52.406Z,7.15
2023-03-06T19:39:04.113Z,7.16
2023-03-06T19:42:06.765Z,7.23
2023-03-06T19:45:15.768Z,7.20
2023-03-06T19:48:18.029Z,7.13
2023-03-06T19:51:20.330Z,7.16
2023-03-06T19:54:24.756Z,7.08
2023-03-06T19:57:27.001Z,7.09
2023-03-06T20:00:29.735Z,7.09
2023-03-06T20:03:32.249Z,6.98
2023-03-06T20:06:36.714Z,6.98
2023-03-06T20:09:39.250Z,6.77
2023-03-06T20:12:41.691Z,6.67
2023-03-06T20:15:44.152Z,6.60
2023-03-06T20:18:46.484Z,6.48
2023-03-06T20:21:48.837Z,6.45
2023-03-06T20:24:51.115Z,6.43
2023-03-06T20:27:53.366Z,6.48
2023-03-06T20:30:55.577Z,6.50
2023-03-06T20:33:59.156Z,6.65
2023-03-06T20:37:01.378Z,6.72
2023-03-06T20:40:04.795Z,6.84
2023-03-06T20:43:07.870Z,6.88
2023-03-06T20:46:11.672Z,6.89
2023-03-06T20:49:14.713Z,6.82
2023-03-06T20:52:16.966Z,6.82
2023-03-06T20:55:19.225Z,6.89
2023-03-06T20:58:23.335Z,6.88
2023-03-06T21:01:31.351Z,6.96
2023-03-06T21:04:33.720Z,7.01
2023-03-06T21:07:40.432Z,7.06
2023-03-06T21:10:45.613Z,7.09
2023-03-06T21:13:47.876Z,7.08
2023-03-06T21:16:50.062Z,7.01
2023-03-06T21:19:52.893Z,7.03
2023-03-06T21:22:56.274Z,7.05
2023-03-06T21:25:58.649Z,7.08
2023-03-06T21:29:01.870Z,7.01
2023-03-06T21:32:04.456Z,7.09
2023-03-06T21:35:08.868Z,6.99
2023-03-06T21:38:11.919Z,7.02
2023-03-06T21:41:17.142Z,7.01
2023-03-06T21:44:19.765Z,7.03
2023-03-06T21:47:21.956Z,7.06
2023-03-06T21:50:24.812Z,7.12
2023-03-06T21:53:27.030Z,6.88
2023-03-06T21:56:29.393Z,6.75
2023-03-06T21:59:31.628Z,6.81
2023-03-06T22:02:34.115Z,6.85
2023-03-06T22:05:36.458Z,6.82
2023-03-06T22:08:39.328Z,6.85
2023-03-06T22:11:43.048Z,6.85
2023-03-06T22:14:45.257Z,6.82
2023-03-06T22:17:48.589Z,6.92
2023-03-06T22:20:52.147Z,6.85
2023-03-06T22:23:59.195Z,6.85
2023-03-06T22:27:01.515Z,6.92
2023-03-06T22:30:04.232Z,6.91
2023-03-06T22:33:06.445Z,6.96
2023-03-06T22:36:11.417Z,6.94
2023-03-06T22:39:14.767Z,6.95
2023-03-06T22:42:17.034Z,6.91
2023-03-06T22:45:19.316Z,6.85
2023-03-06T22:48:21.743Z,6.94
2023-03-06T22:51:23.954Z,6.85
2023-03-06T22:54:26.201Z,6.85
2023-03-06T22:57:29.999Z,6.88
2023-03-06T23:00:32.226Z,6.72
2023-03-06T23:03:36.871Z,6.87
2023-03-06T23:06:41.000Z,6.88
2023-03-06T23:09:43.247Z,6.92
2023-03-06T23:13:04.181Z,6.87
2023-03-06T23:16:25.256Z,6.72
2023-03-06T23:19:49.566Z,6.71
2023-03-06T23:23:11.029Z,6.80
2023-03-06T23:26:17.348Z,6.80
2023-03-06T23:29:19.553Z,6.75
2023-03-06T23:32:21.772Z,6.74
2023-03-06T23:35:24.005Z,6.81
2023-03-06T23:38:26.239Z,6.81
2023-03-06T23:41:28.661Z,6.71
2023-03-06T23:44:30.922Z,6.47
2023-03-06T23:47:33.942Z,6.55
2023-03-06T23:50:39.687Z,6.58
2023-03-06T23:53:42.870Z,6.60
2023-03-06T23:56:45.288Z,6.65
2023-03-06T23:59:47.599Z,6.67
